Time;durP1;ratioP1;P1;durP2;ratioP2;P2;SDS_P1;SDS_P2;PMS_P1;PMS_P2;Temp;Humidity;BMP_temperature;BMP_pressure;BME280_temperature;BME280_humidity;BME280_pressure;Samples;Min_cycle;Max_cycle;Signal;HPM_P1;HPM_P2
2022/01/08 00:03:27;;;;;;;29.27;13.60;;;;;;;0.16;100.00;100338.84;4929510;58;1139017;-74
2022/01/08 00:08:33;;;;;;;66.13;30.83;;;;;;;0.17;100.00;100333.19;4919288;58;1138972;-72
2022/01/08 00:13:40;;;;;;;40.27;19.73;;;;;;;0.17;100.00;100333.19;4949965;59;1139037;-72
2022/01/08 00:18:46;;;;;;;28.50;14.67;;;;;;;0.18;100.00;100333.58;4962472;57;1139149;-72
2022/01/08 00:23:52;;;;;;;51.00;24.90;;;;;;;0.18;100.00;100333.58;4968732;58;1137127;-72
2022/01/08 00:28:59;;;;;;;28.90;13.73;;;;;;;0.17;100.00;100324.93;4968483;58;1137032;-72
2022/01/08 00:34:04;;;;;;;46.80;17.53;;;;;;;0.19;100.00;100330.92;4968336;58;1141108;-72
2022/01/08 00:39:10;;;;;;;98.20;38.57;;;;;;;0.23;100.00;100329.91;5004683;57;1141044;-71
2022/01/08 00:44:18;;;;;;;22.32;10.20;;;;;;;0.22;100.00;100322.16;5047813;58;1141127;-71
2022/01/08 00:49:25;;;;;;;26.47;13.63;;;;;;;0.26;100.00;100320.69;5040648;58;1141067;-71
2022/01/08 00:54:30;;;;;;;20.00;10.23;;;;;;;0.27;100.00;100321.09;5040408;58;1141486;-72
2022/01/08 00:59:36;;;;;;;20.77;11.07;;;;;;;0.24;100.00;100319.91;5040166;58;1141501;-71
2022/01/08 01:04:42;;;;;;;98.87;39.33;;;;;;;0.27;100.00;100321.55;5014336;58;1141290;-72
2022/01/08 01:09:47;;;;;;;52.83;25.67;;;;;;;0.28;100.00;100310.23;5063538;57;1141343;-72
2022/01/08 01:14:53;;;;;;;32.37;18.50;;;;;;;0.27;100.00;100315.04;5122969;57;1141120;-72
2022/01/08 01:19:59;;;;;;;16.20;9.43;;;;;;;0.29;100.00;100306.73;5122880;57;1141335;-72
2022/01/08 01:25:06;;;;;;;18.50;9.90;;;;;;;0.35;100.00;100309.92;5122866;57;1139059;-72
2022/01/08 01:30:16;;;;;;;22.23;12.30;;;;;;;0.30;100.00;100307.12;5122763;57;1139087;-72
2022/01/08 01:51:30;;;;;;;14.43;8.93;;;;;;;0.30;100.00;100286.32;5124076;57;1141349;-72
2022/01/08 01:56:37;;;;;;;21.00;12.40;;;;;;;0.29;100.00;100291.13;5123650;57;1139072;-72
2022/01/08 02:01:43;;;;;;;19.37;11.83;;;;;;;0.30;100.00;100292.37;5123662;57;1141292;-72
2022/01/08 02:06:49;;;;;;;15.17;8.70;;;;;;;0.29;100.00;100294.58;5123832;57;1141493;-72
2022/01/08 02:12:03;;;;;;;23.10;11.67;;;;;;;0.24;100.00;100276.99;5059101;57;1139399;-72
2022/01/08 02:17:10;;;;;;;25.50;14.10;;;;;;;0.32;100.00;100284.48;4981413;58;1141068;-72
2022/01/08 02:22:16;;;;;;;20.47;12.03;;;;;;;0.30;100.00;100281.11;4981423;58;1141121;-72
2022/01/08 02:27:22;;;;;;;19.63;11.43;;;;;;;0.31;100.00;100271.08;4981292;58;1141287;-72
2022/01/08 02:32:30;;;;;;;15.60;10.07;;;;;;;0.31;100.00;100264.12;4981311;58;1141172;-72
2022/01/08 02:37:35;;;;;;;70.80;29.13;;;;;;;0.30;100.00;100261.61;4981368;58;1141122;-72
2022/01/08 02:42:51;;;;;;;35.28;18.23;;;;;;;0.30;100.00;100255.11;5003985;58;1141634;-72
2022/01/08 02:47:50;;;;;;;21.30;10.23;;;;;;;0.29;100.00;100244.31;5012235;58;1139005;-73
2022/01/08 02:52:56;;;;;;;25.77;13.10;;;;;;;0.30;100.00;100246.85;5012259;58;1139079;-72
2022/01/08 02:58:02;;;;;;;25.07;13.83;;;;;;;0.30;100.00;100238.20;5012656;58;1139041;-71
2022/01/08 03:03:08;;;;;;;26.77;14.60;;;;;;;0.33;100.00;100232.84;5012839;58;1139051;-72
2022/01/08 03:08:14;;;;;;;21.77;12.37;;;;;;;0.35;100.00;100233.19;5012922;58;1139288;-72
2022/01/08 03:13:20;;;;;;;22.70;12.17;;;;;;;0.34;100.00;100229.34;5110345;57;1139386;-73
2022/01/08 03:18:25;;;;;;;23.40;13.47;;;;;;;0.24;100.00;100215.88;5114453;57;1139394;-72
2022/01/08 03:23:43;;;;;;;16.23;9.87;;;;;;;0.31;100.00;100217.75;5114322;57;1139298;-73
2022/01/08 03:28:44;;;;;;;20.83;12.50;;;;;;;0.33;100.00;100222.45;5113849;57;1137145;-72
2022/01/08 03:33:53;;;;;;;21.87;12.37;;;;;;;0.32;100.00;100229.86;5114218;57;1139117;-72
2022/01/08 03:38:58;;;;;;;25.25;14.70;;;;;;;0.31;100.00;100225.55;5114149;57;1139081;-72
2022/01/08 03:44:05;;;;;;;23.07;12.57;;;;;;;0.35;100.00;100218.03;5119501;57;1139103;-72
2022/01/08 03:49:22;;;;;;;27.30;15.90;;;;;;;0.33;100.00;100229.80;5124074;57;1139393;-72
2022/01/08 03:54:19;;;;;;;26.13;15.07;;;;;;;0.31;100.00;100210.80;5122448;57;1139012;-72
2022/01/08 03:59:25;;;;;;;24.73;14.97;;;;;;;0.33;100.00;100199.88;5123994;57;1139074;-72
2022/01/08 04:04:31;;;;;;;28.30;15.47;;;;;;;0.39;100.00;100204.00;5124481;57;1139074;-72
2022/01/08 04:16:33;;;;;;;17.60;11.93;;;;;;;0.40;100.00;100200.49;5039850;58;1141158;-72
2022/01/08 04:27:00;;;;;;;20.52;12.03;;;;;;;0.38;100.00;100184.09;5040652;58;1141110;-72
2022/01/08 04:32:06;;;;;;;21.60;13.80;;;;;;;0.41;100.00;100182.67;5040986;58;1141312;-72
2022/01/08 04:37:12;;;;;;;27.80;12.70;;;;;;;0.44;100.00;100181.26;5041423;58;1141246;-72
2022/01/08 04:42:18;;;;;;;23.67;12.80;;;;;;;0.45;100.00;100173.00;5032247;58;1141112;-72
2022/01/08 04:47:25;;;;;;;23.37;13.17;;;;;;;0.43;100.00;100175.66;5009347;58;1141014;-72
2022/01/08 04:52:31;;;;;;;20.67;12.60;;;;;;;0.41;100.00;100172.73;5004310;58;1141052;-72
2022/01/08 04:57:37;;;;;;;21.70;14.53;;;;;;;0.39;100.00;100179.29;4968364;58;1141019;-72
2022/01/08 05:02:42;;;;;;;26.40;15.20;;;;;;;0.39;100.00;100164.14;4968464;58;1141319;-72
2022/01/08 05:07:48;;;;;;;26.90;15.10;;;;;;;0.37;100.00;100156.84;4968387;58;1141037;-72
2022/01/08 05:12:54;;;;;;;25.17;14.30;;;;;;;0.37;100.00;100153.79;4894772;59;1141140;-72
2022/01/08 05:18:00;;;;;;;18.90;10.83;;;;;;;0.38;100.00;100153.34;4880052;59;1141353;-72
2022/01/08 05:23:06;;;;;;;24.70;12.23;;;;;;;0.35;100.00;100150.41;4880028;59;1141235;-72
2022/01/08 05:28:12;;;;;;;20.47;12.00;;;;;;;0.31;100.00;100165.73;4880827;59;1141293;-72
2022/01/08 05:33:18;;;;;;;28.57;14.43;;;;;;;0.28;100.00;100166.73;4880627;60;1141357;-72
2022/01/08 05:38:24;;;;;;;27.37;16.20;;;;;;;0.30;100.00;100164.08;4880228;60;1139263;-72
2022/01/08 05:43:29;;;;;;;22.87;12.30;;;;;;;0.28;100.00;100167.19;4890973;59;1139427;-73
2022/01/08 05:48:36;;;;;;;25.53;14.20;;;;;;;0.28;100.00;100164.14;4901010;59;1139293;-72
2022/01/08 05:53:42;;;;;;;23.47;11.87;;;;;;;0.28;100.00;100171.09;4900339;60;1139073;-73
2022/01/08 05:58:49;;;;;;;27.30;14.50;;;;;;;0.29;100.00;100171.03;4900195;60;1139045;-72
2022/01/08 06:03:54;;;;;;;21.80;13.73;;;;;;;0.27;100.00;100171.55;4900233;60;1139129;-72
2022/01/08 06:09:01;;;;;;;28.57;13.97;;;;;;;0.28;100.00;100179.73;4912901;59;1139285;-72
2022/01/08 06:14:06;;;;;;;25.83;12.63;;;;;;;0.29;100.00;100175.38;4997084;59;1139211;-72
2022/01/08 06:19:15;;;;;;;24.23;15.00;;;;;;;0.25;100.00;100177.71;4997486;59;1138942;-72
2022/01/08 06:24:20;;;;;;;26.87;14.47;;;;;;;0.25;100.00;100179.02;4997171;59;1139141;-72
2022/01/08 06:29:27;;;;;;;24.13;14.70;;;;;;;0.27;100.00;100184.55;5004170;59;1139002;-71
2022/01/08 06:34:33;;;;;;;27.57;14.73;;;;;;;0.27;100.00;100188.91;5008592;59;1139597;-72
2022/01/08 06:39:39;;;;;;;29.63;15.10;;;;;;;0.24;100.00;100189.02;5008490;59;1139272;-72
2022/01/08 06:44:46;;;;;;;24.50;13.97;;;;;;;0.23;100.00;100188.17;4979544;59;1139103;-72
2022/01/08 06:49:52;;;;;;;33.57;17.37;;;;;;;0.26;100.00;100189.81;4995990;59;1139097;-72
2022/01/08 06:54:57;;;;;;;24.40;13.40;;;;;;;0.27;100.00;100205.36;4995876;59;1139086;-72
2022/01/08 07:00:04;;;;;;;20.20;11.33;;;;;;;0.28;100.00;100207.50;4996006;59;1139067;-72
2022/01/08 07:05:10;;;;;;;28.37;13.37;;;;;;;0.27;100.00;100210.55;4995982;59;1136937;-72
2022/01/08 07:10:16;;;;;;;22.60;11.90;;;;;;;0.21;100.00;100211.24;5000375;58;1137263;-72
2022/01/08 07:15:21;;;;;;;17.47;10.03;;;;;;;0.21;100.00;100213.84;4991763;59;1136937;-72
2022/01/08 07:20:27;;;;;;;22.57;12.97;;;;;;;0.20;100.00;100214.30;4992173;59;1141629;-72
2022/01/08 07:25:33;;;;;;;32.40;15.97;;;;;;;0.20;100.00;100208.25;4969539;59;1141074;-72
2022/01/08 07:30:39;;;;;;;31.73;18.27;;;;;;;0.19;100.00;100210.00;4946323;58;1141485;-72
2022/01/08 07:35:45;;;;;;;25.93;13.50;;;;;;;0.19;100.00;100203.50;5000430;58;1141271;-72
2022/01/08 07:40:52;;;;;;;27.02;15.00;;;;;;;0.24;100.00;100212.42;4999981;58;1141389;-71
2022/01/08 07:45:58;;;;;;;24.63;12.23;;;;;;;0.23;100.00;100214.18;4954597;58;1141419;-71
2022/01/08 07:51:04;;;;;;;17.60;10.33;;;;;;;0.22;100.00;100213.78;4912819;58;1141200;-70
2022/01/08 07:56:10;;;;;;;21.10;12.17;;;;;;;0.20;100.00;100207.80;4910409;57;1141059;-71
2022/01/08 08:01:16;;;;;;;20.83;12.80;;;;;;;0.22;100.00;100201.23;4923000;58;1141011;-71
2022/01/08 08:06:21;;;;;;;26.93;14.07;;;;;;;0.23;100.00;100197.27;4945174;58;1141048;-72
2022/01/08 08:11:27;;;;;;;19.23;12.07;;;;;;;0.25;100.00;100187.66;4920419;59;1141421;-73
2022/01/08 08:16:33;;;;;;;26.57;15.10;;;;;;;0.29;100.00;100189.23;4923253;59;1141202;-73
2022/01/08 08:21:39;;;;;;;25.33;13.90;;;;;;;0.35;100.00;100184.22;4953636;58;1140762;-72
2022/01/08 08:26:46;;;;;;;30.87;16.53;;;;;;;0.37;100.00;100191.51;4890734;60;1141128;-72
2022/01/08 08:31:52;;;;;;;27.77;15.13;;;;;;;0.40;100.00;100195.74;4903417;59;1141346;-72
2022/01/08 08:36:58;;;;;;;25.07;13.80;;;;;;;0.43;100.00;100202.98;4968495;58;1141063;-74
2022/01/08 08:42:04;;;;;;;35.60;18.87;;;;;;;0.42;100.00;100197.38;4968633;58;1141049;-72
2022/01/08 08:47:11;;;;;;;23.40;12.53;;;;;;;0.43;100.00;100197.77;4972090;58;1140635;-72
2022/01/08 08:52:17;;;;;;;25.07;13.10;;;;;;;0.46;100.00;100204.13;4984794;59;1141333;-74
2022/01/08 08:57:23;;;;;;;23.67;13.27;;;;;;;0.48;100.00;100199.70;4949186;59;1141150;-74
2022/01/08 09:02:28;;;;;;;17.50;9.47;;;;;;;0.51;100.00;100194.84;4937309;59;1141176;-73
2022/01/08 09:07:34;;;;;;;37.07;16.17;;;;;;;0.52;100.00;100196.53;4911901;60;1139260;-71
2022/01/08 09:12:43;;;;;;;72.87;39.90;;;;;;;0.54;100.00;100196.02;4911886;60;1141088;-74
2022/01/08 09:17:49;;;;;;;26.90;15.03;;;;;;;0.57;100.00;100200.64;4911880;60;1141050;-74
2022/01/08 09:22:55;;;;;;;60.13;29.27;;;;;;;0.60;100.00;100203.13;4934351;59;1141177;-72
2022/01/08 09:28:01;;;;;;;162.50;58.10;;;;;;;0.64;100.00;100213.78;4930728;59;1141036;-75
2022/01/08 09:33:07;;;;;;;277.90;91.23;;;;;;;0.66;100.00;100204.61;4982418;59;1143135;-71
2022/01/08 09:38:13;;;;;;;75.27;40.90;;;;;;;0.67;100.00;100203.70;4953433;59;1143254;-72
2022/01/08 09:43:21;;;;;;;279.83;138.30;;;;;;;0.73;100.00;100207.81;4945560;59;1141257;-72
2022/01/08 09:48:30;;;;;;;122.80;40.03;;;;;;;0.79;100.00;100203.17;4942760;59;1145188;-72
2022/01/08 09:53:37;;;;;;;257.97;86.63;;;;;;;0.85;100.00;100189.91;4966169;59;1143258;-71
2022/01/08 09:58:43;;;;;;;76.17;31.60;;;;;;;0.93;100.00;100196.07;4966403;59;1143201;-74
2022/01/08 10:03:48;;;;;;;60.27;25.57;;;;;;;0.96;100.00;100193.34;4912153;60;1141347;-74
2022/01/08 10:08:55;;;;;;;32.07;17.77;;;;;;;0.98;100.00;100190.22;4957939;59;1141132;-75
2022/01/08 10:14:07;;;;;;;23.67;11.50;;;;;;;1.03;100.00;100181.30;4962056;59;1141245;-72
2022/01/08 10:19:27;;;;;;;43.47;20.50;;;;;;;1.05;100.00;100176.03;4968380;59;1141100;-74
2022/01/08 10:24:40;;;;;;;25.63;13.70;;;;;;;1.09;100.00;100172.36;4985862;59;1139065;-74
2022/01/08 10:29:50;;;;;;;23.70;14.00;;;;;;;1.18;100.00;100169.81;4963401;59;1139536;-74
2022/01/08 10:34:56;;;;;;;28.63;12.70;;;;;;;1.17;100.00;100170.73;4931863;59;1139242;-75
2022/01/08 10:40:02;;;;;;;38.37;18.07;;;;;;;1.17;100.00;100166.83;4938605;59;1139449;-73
2022/01/08 10:45:17;;;;;;;45.50;23.00;;;;;;;1.22;100.00;100151.84;4968009;59;1139254;-75
2022/01/08 10:50:26;;;;;;;160.93;65.23;;;;;;;1.28;100.00;100151.55;4954930;58;1139038;-73
2022/01/08 10:55:33;;;;;;;39.75;22.55;;;;;;;1.40;100.00;100154.44;4993012;58;1141092;-74
2022/01/08 11:00:39;;;;;;;62.83;34.50;;;;;;;1.50;100.00;100152.27;4985829;58;1139297;-72
2022/01/08 11:06:03;;;;;;;59.30;26.10;;;;;;;1.57;100.00;100151.05;4961734;59;1138936;-73
2022/01/08 11:11:09;;;;;;;50.67;23.00;;;;;;;1.67;100.00;100152.34;5073242;57;21180;-74
2022/01/08 11:16:15;;;;;;;38.33;19.83;;;;;;;1.77;100.00;100155.34;5125713;57;1137120;-74
2022/01/08 11:21:22;;;;;;;33.13;18.57;;;;;;;1.86;100.00;100150.13;5124713;57;1141104;-73
2022/01/08 11:26:30;;;;;;;76.23;40.90;;;;;;;1.97;100.00;100141.36;5124701;57;1141078;-73
2022/01/08 11:31:36;;;;;;;35.27;18.10;;;;;;;1.99;100.00;100139.50;5025187;57;1141324;-75
2022/01/08 11:36:47;;;;;;;48.77;25.23;;;;;;;1.96;100.00;100134.45;5026610;58;1141175;-75
2022/01/08 11:41:50;;;;;;;47.85;22.62;;;;;;;1.93;100.00;100130.23;5030125;58;1141080;-73
2022/01/08 11:46:57;;;;;;;50.20;31.80;;;;;;;1.94;100.00;100127.16;5069514;58;1140984;-73
2022/01/08 11:52:23;;;;;;;24.60;13.37;;;;;;;1.91;100.00;100129.91;5069075;58;1141079;-72
2022/01/08 11:57:32;;;;;;;25.30;13.17;;;;;;;1.88;100.00;100126.14;5059679;58;1141145;-72
2022/01/08 12:02:45;;;;;;;33.57;19.13;;;;;;;1.90;100.00;100128.22;5027480;58;1141354;-75
2022/01/08 12:07:58;;;;;;;33.63;17.65;;;;;;;1.89;100.00;100126.07;5027641;58;1141306;-72
2022/01/08 12:13:02;;;;;;;39.70;20.70;;;;;;;1.91;100.00;100125.55;4998980;58;1141061;-75
2022/01/08 12:18:15;;;;;;;247.90;102.37;;;;;;;1.89;100.00;100135.66;4953705;59;1141084;-72
2022/01/08 12:23:33;;;;;;;184.90;73.67;;;;;;;1.87;100.00;100134.88;4947109;59;1145159;-74
2022/01/08 12:28:58;;;;;;;127.50;35.07;;;;;;;1.83;100.00;100132.91;4947495;59;1143063;-73
2022/01/08 12:34:28;;;;;;;118.07;55.30;;;;;;;1.76;100.00;100131.03;4947649;59;1143208;-75
2022/01/08 12:39:48;;;;;;;48.57;19.67;;;;;;;1.71;100.00;100112.15;4947919;59;1143152;-73
2022/01/08 12:45:31;;;;;;;54.10;24.20;;;;;;;1.77;100.00;100120.15;4947635;59;1138972;-73
2022/01/08 12:50:51;;;;;;;42.03;17.07;;;;;;;1.75;100.00;100116.77;4961396;58;1139268;-75
2022/01/08 12:56:02;;;;;;;35.07;15.87;;;;;;;1.73;100.00;100111.63;4980753;59;1138863;-75
2022/01/08 13:01:11;;;;;;;42.87;18.47;;;;;;;1.73;100.00;100122.50;4981185;59;1139147;-72
2022/01/08 13:06:21;;;;;;;61.00;23.20;;;;;;;1.73;100.00;100112.08;4980444;58;1139049;-74
2022/01/08 13:11:32;;;;;;;49.93;20.33;;;;;;;1.67;100.00;100104.11;4936291;58;1137050;-74
2022/01/08 13:16:51;;;;;;;46.53;17.87;;;;;;;1.73;100.00;100125.11;4910716;59;1141057;-72
2022/01/08 13:22:07;;;;;;;112.15;36.75;;;;;;;1.70;100.00;100129.16;4910352;59;1141128;-72
2022/01/08 13:27:20;;;;;;;115.23;43.83;;;;;;;1.69;100.00;100123.56;4909400;59;1143296;-75
2022/01/08 13:32:26;;;;;;;55.83;31.30;;;;;;;1.65;100.00;100122.89;4909032;59;1143309;-71
2022/01/08 13:37:34;;;;;;;64.33;30.37;;;;;;;1.67;100.00;100122.81;4909260;58;1141387;-73
2022/01/08 13:42:46;;;;;;;36.33;19.27;;;;;;;1.67;100.00;100113.69;4909751;58;1141003;-73
2022/01/08 13:47:56;;;;;;;182.68;56.77;;;;;;;1.63;100.00;100106.93;4910103;59;1141186;-74
2022/01/08 13:53:09;;;;;;;42.87;20.60;;;;;;;1.65;100.00;100102.03;4916406;58;1143283;-72
2022/01/08 13:58:28;;;;;;;45.43;20.32;;;;;;;1.68;100.00;100099.74;4904211;59;1141360;-73
2022/01/08 14:03:46;;;;;;;59.90;23.10;;;;;;;1.65;100.00;100103.34;4879489;59;1141145;-72
2022/01/08 14:08:58;;;;;;;55.53;24.70;;;;;;;1.65;100.00;100111.61;4887555;59;1141099;-73
2022/01/08 14:14:17;;;;;;;59.33;24.02;;;;;;;1.63;100.00;100114.29;4957739;58;1141193;-74
2022/01/08 14:19:21;;;;;;;161.03;54.47;;;;;;;1.57;100.00;100105.45;4957436;58;1141342;-74
2022/01/08 14:24:35;;;;;;;188.17;58.77;;;;;;;1.55;100.00;100105.13;4957462;57;1143417;-73
2022/01/08 14:29:47;;;;;;;101.23;38.10;;;;;;;1.54;100.00;100096.46;4957487;58;1143247;-73
2022/01/08 14:35:02;;;;;;;52.83;23.27;;;;;;;1.52;100.00;100098.78;4953150;58;1143233;-74
2022/01/08 14:40:25;;;;;;;101.50;43.97;;;;;;;1.44;100.00;100098.28;4957313;58;1141397;-72
2022/01/08 14:45:37;;;;;;;100.02;43.15;;;;;;;1.41;100.00;100093.59;4957239;58;1141271;-74
2022/01/08 14:50:42;;;;;;;97.93;44.43;;;;;;;1.44;100.00;100089.16;4957690;57;1141173;-73
2022/01/08 14:55:50;;;;;;;91.83;37.57;;;;;;;1.42;100.00;100093.14;4957824;58;1139232;-71
2022/01/08 15:00:58;;;;;;;136.37;64.73;;;;;;;1.37;100.00;100086.86;4957860;58;1139081;-74
2022/01/08 15:06:04;;;;;;;345.70;155.87;;;;;;;1.37;100.00;100084.25;4958030;58;1141386;-74
2022/01/08 15:11:13;;;;;;;255.23;87.23;;;;;;;1.37;100.00;100090.77;4914473;58;1143335;-73
2022/01/08 15:16:17;;;;;;;285.93;112.03;;;;;;;1.33;100.00;100089.22;4880363;60;1141219;-74
2022/01/08 15:21:23;;;;;;;217.87;54.90;;;;;;;1.28;100.00;100085.13;4880330;60;1143194;-72
2022/01/08 15:26:29;;;;;;;88.82;34.63;;;;;;;1.24;100.00;100078.36;4880887;60;1141210;-74
2022/01/08 15:31:36;;;;;;;68.13;30.47;;;;;;;1.29;100.00;100083.75;4880560;60;1139120;-72
2022/01/08 15:36:42;;;;;;;77.03;33.20;;;;;;;1.30;100.00;100076.33;4881203;60;1139160;-75
2022/01/08 15:41:49;;;;;;;69.07;29.75;;;;;;;1.34;100.00;100076.58;4881439;59;1139087;-74
2022/01/08 15:46:55;;;;;;;98.43;32.67;;;;;;;1.34;100.00;100076.58;4881497;60;1139156;-74
2022/01/08 15:52:01;;;;;;;66.57;31.83;;;;;;;1.31;100.00;100073.27;4881934;59;1136956;-74
2022/01/08 15:57:07;;;;;;;73.47;35.83;;;;;;;1.30;100.00;100059.39;4899491;60;21116;-72
2022/01/08 16:02:12;;;;;;;69.63;34.47;;;;;;;1.33;100.00;100067.06;4973914;58;1136854;-74
2022/01/08 16:07:18;;;;;;;73.27;33.03;;;;;;;1.39;100.00;100057.64;4991725;59;1141071;-75
2022/01/08 16:12:24;;;;;;;74.17;32.17;;;;;;;1.43;100.00;100063.56;4962609;59;1141101;-75
2022/01/08 16:17:29;;;;;;;144.40;52.37;;;;;;;1.38;100.00;100061.16;4954417;59;1141120;-72
2022/01/08 16:22:35;;;;;;;87.20;39.50;;;;;;;1.34;100.00;100057.49;4955368;59;1143440;-72
2022/01/08 16:27:41;;;;;;;120.00;56.00;;;;;;;1.36;100.00;100052.60;4954110;59;1141063;-73
2022/01/08 16:32:47;;;;;;;87.33;36.97;;;;;;;1.38;100.00;100054.65;4954994;59;1143493;-75
2022/01/08 16:37:53;;;;;;;105.47;45.43;;;;;;;1.35;100.00;100047.46;4935074;59;1141151;-74
2022/01/08 16:42:59;;;;;;;135.17;50.93;;;;;;;1.31;100.00;100052.42;4932684;58;1143238;-75
2022/01/08 16:48:06;;;;;;;70.90;31.00;;;;;;;1.29;100.00;100047.28;4958526;57;1143202;-74
2022/01/08 16:53:14;;;;;;;76.10;34.40;;;;;;;1.24;100.00;100033.62;4958758;58;1141070;-73
2022/01/08 16:58:21;;;;;;;60.87;30.10;;;;;;;1.24;100.00;100033.62;4975808;59;1141058;-76
2022/01/08 17:03:27;;;;;;;63.63;29.73;;;;;;;1.22;100.00;100028.13;4959174;59;1141118;-76
2022/01/08 17:08:32;;;;;;;97.07;39.40;;;;;;;1.20;100.00;100037.31;4933270;59;1141235;-78
2022/01/08 17:13:38;;;;;;;74.63;35.83;;;;;;;1.18;100.00;100032.63;4927555;59;1141138;-72
2022/01/08 17:18:44;;;;;;;63.47;27.97;;;;;;;1.09;100.00;100026.98;4922029;59;1141096;-73
2022/01/08 17:23:50;;;;;;;59.63;27.63;;;;;;;1.04;100.00;100028.06;4936211;58;1141124;-71
2022/01/08 17:28:56;;;;;;;46.60;20.80;;;;;;;0.96;100.00;100015.84;4945514;58;1140893;-75
2022/01/08 17:34:02;;;;;;;73.27;31.37;;;;;;;0.88;100.00;100016.66;4890522;59;1141113;-73
2022/01/08 17:39:08;;;;;;;47.90;21.50;;;;;;;0.81;100.00;100015.23;4885757;59;1141101;-72
2022/01/08 17:44:13;;;;;;;78.30;33.17;;;;;;;0.79;100.00;100013.16;4906144;58;1141040;-76
2022/01/08 17:49:19;;;;;;;55.57;26.43;;;;;;;0.77;100.00;100002.42;4923757;58;1141110;-73
2022/01/08 17:54:25;;;;;;;65.07;33.17;;;;;;;0.75;100.00;100004.28;4902259;58;1141110;-72
2022/01/08 17:59:31;;;;;;;72.97;40.53;;;;;;;0.74;100.00;100002.59;4955345;59;1141260;-73
2022/01/08 18:04:41;;;;;;;135.07;43.20;;;;;;;0.70;100.00;100003.18;4975449;59;1141203;-71
2022/01/08 18:09:45;;;;;;;117.47;56.17;;;;;;;0.68;100.00;100005.00;4950478;59;1143148;-73
2022/01/08 18:14:51;;;;;;;282.07;76.60;;;;;;;0.67;100.00;99993.75;4957382;59;1143342;-70
2022/01/08 18:19:57;;;;;;;499.37;178.40;;;;;;;0.72;100.00;100001.36;4993479;59;1141070;-72
2022/01/08 18:25:03;;;;;;;292.93;77.83;;;;;;;0.74;100.00;99989.12;4943292;59;1145458;-74
2022/01/08 18:30:11;;;;;;;241.33;72.30;;;;;;;0.75;100.00;99983.01;4923006;59;1141039;-71
2022/01/08 18:35:18;;;;;;;146.80;47.00;;;;;;;0.73;100.00;99980.92;4942202;59;1141726;-76
2022/01/08 18:40:26;;;;;;;93.37;37.97;;;;;;;0.74;100.00;99967.45;4990490;59;1141281;-70
2022/01/08 18:45:35;;;;;;;69.83;30.83;;;;;;;0.74;100.00;99967.45;4989909;59;1139311;-68
2022/01/08 18:50:41;;;;;;;87.87;40.43;;;;;;;0.73;100.00;99958.80;4953666;59;1139331;-67
2022/01/08 18:55:47;;;;;;;91.93;39.97;;;;;;;0.72;100.00;99961.47;4954068;58;1139117;-72
2022/01/08 19:00:55;;;;;;;83.40;37.33;;;;;;;0.67;100.00;99956.02;4990345;57;1139046;-75
2022/01/08 19:06:01;;;;;;;259.63;97.60;;;;;;;0.71;100.00;99950.22;4996731;58;1139022;-84
2022/01/08 19:11:09;;;;;;;180.23;80.03;;;;;;;0.74;100.00;99943.58;5002640;57;1138933;-72
2022/01/08 19:16:15;;;;;;;69.70;32.30;;;;;;;0.76;100.00;99941.75;5016866;57;1139037;-75
2022/01/08 19:21:21;;;;;;;68.43;28.37;;;;;;;0.79;100.00;99935.08;5012639;57;1136870;-79
2022/01/08 19:26:28;;;;;;;63.20;28.03;;;;;;;0.83;100.00;99934.02;5004610;57;1137046;-73
2022/01/08 19:31:34;;;;;;;92.77;34.63;;;;;;;0.86;100.00;99933.04;5058141;58;1136885;-72
2022/01/08 19:36:40;;;;;;;134.97;44.20;;;;;;;0.87;100.00;99929.06;4984712;58;1136964;-70
2022/01/08 19:41:46;;;;;;;64.67;26.30;;;;;;;0.89;100.00;99922.03;4978806;58;1139228;-72
2022/01/08 19:46:52;;;;;;;184.25;53.28;;;;;;;0.90;100.00;99913.77;5040122;57;1136914;-73
2022/01/08 19:51:58;;;;;;;153.97;56.05;;;;;;;0.90;100.00;99904.66;5040191;57;1139066;-69
2022/01/08 19:57:07;;;;;;;310.67;101.93;;;;;;;0.99;100.00;99907.65;5038412;58;1139070;-73
2022/01/08 20:02:14;;;;;;;482.50;146.43;;;;;;;1.07;100.00;99898.64;4992874;58;1141233;-71
2022/01/08 20:07:25;;;;;;;160.57;53.43;;;;;;;1.11;100.00;99894.95;5050739;58;1141599;-73
2022/01/08 20:12:27;;;;;;;330.33;94.93;;;;;;;1.10;100.00;99891.50;5053061;58;1138985;-80
2022/01/08 20:17:33;;;;;;;134.10;48.37;;;;;;;1.12;100.00;99887.52;5014363;58;1140138;-85
2022/01/08 20:22:40;;;;;;;66.10;28.30;;;;;;;1.12;100.00;99877.10;5023176;58;1139087;-75
2022/01/08 20:27:46;;;;;;;77.37;32.20;;;;;;;1.15;100.00;99866.54;4983479;57;1137028;-77
2022/01/08 20:32:52;;;;;;;51.68;24.25;;;;;;;1.10;100.00;99861.55;5020006;57;1136956;-76
2022/01/08 20:38:05;;;;;;;99.13;40.20;;;;;;;1.08;100.00;99854.73;4999630;57;1135015;-73
2022/01/08 20:43:08;;;;;;;237.08;87.40;;;;;;;1.09;100.00;99851.20;5039712;58;1139147;-72
2022/01/08 20:48:16;;;;;;;117.23;61.40;;;;;;;1.03;100.00;99841.50;4990707;58;1141205;-78
2022/01/08 20:53:22;;;;;;;100.70;45.33;;;;;;;0.99;100.00;99830.84;4951575;58;1141076;-82
2022/01/08 20:58:29;;;;;;;148.77;60.33;;;;;;;1.01;100.00;99829.01;4940627;58;1141195;-76
2022/01/08 21:03:35;;;;;;;225.30;89.23;;;;;;;0.99;100.00;99820.42;4987407;58;1141093;-78
2022/01/08 21:08:42;;;;;;;91.27;39.73;;;;;;;0.97;100.00;99820.95;5027666;57;1141116;-75
2022/01/08 21:13:47;;;;;;;42.50;21.77;;;;;;;0.97;100.00;99813.15;5106214;57;1139022;-84
2022/01/08 21:18:54;;;;;;;44.90;22.17;;;;;;;0.99;100.00;99797.00;5014916;57;1138975;-75
2022/01/08 21:24:00;;;;;;;49.10;26.40;;;;;;;1.01;100.00;99790.41;5004175;57;1139148;-82
2022/01/08 21:29:06;;;;;;;43.52;25.15;;;;;;;1.02;100.00;99792.10;4882289;59;1139156;-72
2022/01/08 21:34:12;;;;;;;66.73;32.63;;;;;;;0.98;100.00;99794.01;4800586;60;1139101;-82
2022/01/08 21:39:22;;;;;;;42.20;22.30;;;;;;;0.90;100.00;99790.95;4952470;59;1139249;-72
2022/01/08 21:44:28;;;;;;;141.87;50.57;;;;;;;0.81;100.00;99799.66;4901903;59;1139027;-71
2022/01/08 21:49:33;;;;;;;110.10;46.00;;;;;;;0.72;100.00;99793.16;4931615;59;1141282;-76
2022/01/08 21:54:39;;;;;;;102.13;42.30;;;;;;;0.63;100.00;99786.63;4922519;59;1141319;-82
2022/01/08 21:59:44;;;;;;;59.77;25.57;;;;;;;0.61;100.00;99785.04;4996320;58;1141084;-72
2022/01/08 22:04:50;;;;;;;61.57;28.47;;;;;;;0.57;100.00;99773.09;4967713;57;1139006;-77
2022/01/08 22:09:56;;;;;;;56.50;27.37;;;;;;;0.52;100.00;99768.55;4965318;57;1138514;-78
2022/01/08 22:15:02;;;;;;;35.37;18.97;;;;;;;0.53;100.00;99763.73;4997293;57;1138978;-72
2022/01/08 22:20:10;;;;;;;33.17;18.37;;;;;;;0.50;100.00;99759.52;5007483;57;1139214;-77
2022/01/08 22:25:15;;;;;;;44.70;21.37;;;;;;;0.45;100.00;99754.18;5011200;57;1139051;-74
2022/01/08 22:30:21;;;;;;;52.48;24.50;;;;;;;0.42;100.00;99747.81;5010877;57;1139273;-73
2022/01/08 22:35:27;;;;;;;55.90;25.77;;;;;;;0.38;100.00;99747.12;4993245;57;1139243;-78
2022/01/08 22:40:33;;;;;;;48.00;22.20;;;;;;;0.44;100.00;99739.03;4932416;57;1139067;-77
2022/01/08 22:45:38;;;;;;;58.80;27.60;;;;;;;0.48;100.00;99744.90;4944492;57;1139005;-76
2022/01/08 22:50:45;;;;;;;63.30;30.73;;;;;;;0.50;100.00;99732.66;4928796;58;1138950;-77
2022/01/08 22:55:51;;;;;;;58.67;26.47;;;;;;;0.55;100.00;99730.23;4915167;58;1139021;-76
2022/01/08 23:00:56;;;;;;;59.03;25.90;;;;;;;0.62;100.00;99722.48;4927551;58;1139500;-72
2022/01/08 23:06:05;;;;;;;95.15;46.10;;;;;;;0.70;100.00;99715.62;4939796;58;1139004;-79
2022/01/08 23:11:10;;;;;;;54.03;27.37;;;;;;;0.72;100.00;99719.45;4937541;58;1138965;-77
2022/01/08 23:16:16;;;;;;;49.60;25.07;;;;;;;0.73;100.00;99720.67;4941650;59;1138938;-80